Jsp Bora — V2CQ4 — position and weather

sailwx.info

Track history (hours):
 
Tides and Currents Weather Stations Pressure Air Temp Water Temp Dewpoint Dewpoint Depression Visibility Wind Speed Wind Dir Waves Ship Positions

Jsp Bora

Last reported at 2017-Feb-23 14:04 UTC. Time now 2017-Feb-24 00:02 UTC.
Position N 38°04' E 001°31'.

Length 148 m; draft 8.9 m.

Type: Ship. MMSI: 305079000.

Date/timePositionNaut miles runAvg speedWind from/ knotsBaromVisibWave heightAir tempDewpointWater temp
2017-Feb-23 14:04N 38°04' E 001°31'1114.0
2017-Feb-23 13:17N 38°12' E 001°21'1214.4
2017-Feb-23 12:28N 38°20' E 001°10'1313.9
2017-Feb-23 11:31N 38°29' E 000°58'7714.7
2017-Feb-23 06:15N 39°23' W 000°13'6 8.8
2017-Feb-23 05:33N 39°26' W 000°20'0 0.1
2017-Feb-23 04:18N 39°26' W 000°20'0 0.0
2017-Feb-23 01:30N 39°26' W 000°20'0 0.0
2017-Feb-23 00:30N 39°26' W 000°20'0 0.0
2017-Feb-22 22:09N 39°26' W 000°20'0 0.0
2017-Feb-22 21:33N 39°26' W 000°20'0 0.0
2017-Feb-22 17:20N 39°26' W 000°20'0 0.0
2017-Feb-22 16:33N 39°26' W 000°20'0 0.0
2017-Feb-22 15:32N 39°26' W 000°20'0 0.0
2017-Feb-22 14:33N 39°26' W 000°20'0 0.0
2017-Feb-22 13:26N 39°26' W 000°20'0 0.0
2017-Feb-22 12:31N 39°26' W 000°20'0 0.0
2017-Feb-22 11:33N 39°26' W 000°20'0 0.0
2017-Feb-22 10:34N 39°26' W 000°20'0 0.0
2017-Feb-22 09:30N 39°26' W 000°20'0 0.0
2017-Feb-22 08:29N 39°26' W 000°20'0 0.0
2017-Feb-22 07:34N 39°26' W 000°20'0 0.0
2017-Feb-22 06:30N 39°26' W 000°20'2 2.4
2017-Feb-22 05:34N 39°25' W 000°17'  
2017-Feb-18 16:26N 38°40' E 002°14'1314.4
2017-Feb-18 15:32N 38°52' E 002°09'1515.0
2017-Feb-18 14:33N 39°06' E 002°02'1514.7
2017-Feb-18 13:33N 39°20' E 001°55'1414.5
2017-Feb-18 12:33N 39°34' E 001°51'1514.6
2017-Feb-18 11:33N 39°48' E 001°54'1514.5
2017-Feb-18 10:33N 40°03' E 001°56'1514.5
2017-Feb-18 09:33N 40°17' E 001°59'1514.8
2017-Feb-18 08:33N 40°32' E 002°02'1514.9
2017-Feb-18 07:33N 40°46' E 002°05'1514.7
2017-Feb-18 06:33N 41°01' E 002°07'1514.7
2017-Feb-18 05:33N 41°16' E 002°10'3 3.2
2017-Feb-18 04:33N 41°19' E 002°09'0 0.0
2017-Feb-18 03:33N 41°19' E 002°09'0 0.0
2017-Feb-18 02:33N 41°19' E 002°09'0 0.0
2017-Feb-18 01:33N 41°19' E 002°09'0 0.0
2017-Feb-18 00:33N 41°19' E 002°09'0 0.0
2017-Feb-17 23:30N 41°19' E 002°09'0 0.0
2017-Feb-17 22:14N 41°19' E 002°09'0 0.0
2017-Feb-17 21:31N 41°19' E 002°09'0 0.0
2017-Feb-17 20:30N 41°19' E 002°09'0 0.0
2017-Feb-17 19:25N 41°19' E 002°09'0 0.0
2017-Feb-17 17:08N 41°19' E 002°09'0 0.0
2017-Feb-17 14:14N 41°19' E 002°09'0 0.0
2017-Feb-17 13:29N 41°19' E 002°09'0 0.0
2017-Feb-17 11:26N 41°19' E 002°09'0 0.0
2017-Feb-17 10:28N 41°19' E 002°09'0 0.0
2017-Feb-17 09:33N 41°19' E 002°09'0 0.0
2017-Feb-17 08:33N 41°19' E 002°09'0 0.0
2017-Feb-17 07:32N 41°19' E 002°09'0 0.0
2017-Feb-17 05:25N 41°19' E 002°09'0 0.0
2017-Feb-17 04:30N 41°19' E 002°09'3 3.4
2017-Feb-17 03:30N 41°15' E 002°11'6 6.2
2017-Feb-17 02:33N 41°10' E 002°09'1 0.5
2017-Feb-17 01:33N 41°10' E 002°10'1 0.5
2017-Feb-17 00:33N 41°11' E 002°10'0 0.3
2017-Feb-16 23:33N 41°11' E 002°10'0 0.2
2017-Feb-16 22:33N 41°11' E 002°11'0 0.1
2017-Feb-16 21:32N 41°11' E 002°11'0 0.1
2017-Feb-16 20:33N 41°11' E 002°11'0 0.3
2017-Feb-16 19:33N 41°11' E 002°11'0 0.3
2017-Feb-16 18:33N 41°10' E 002°11'1 0.5
2017-Feb-16 17:33N 41°10' E 002°11'1 0.6
2017-Feb-16 16:33N 41°09' E 002°12'1 0.6
2017-Feb-16 15:33N 41°09' E 002°12'1 0.7
2017-Feb-16 14:33N 41°08' E 002°13'1 0.7
2017-Feb-16 13:32N 41°08' E 002°13'1 0.6
2017-Feb-16 12:33N 41°08' E 002°14'1 0.6
2017-Feb-16 11:32N 41°08' E 002°15'1 0.6
2017-Feb-16 10:34N 41°08' E 002°16'0 0.5
2017-Feb-16 09:33N 41°08' E 002°17'0 0.5
2017-Feb-16 08:33N 41°08' E 002°17'1 0.5
2017-Feb-16 07:33N 41°08' E 002°18'0 0.5
2017-Feb-16 06:33N 41°08' E 002°18'0 0.4
2017-Feb-16 05:33N 41°09' E 002°19'0 0.4
2017-Feb-16 04:33N 41°09' E 002°19'0 0.5
2017-Feb-16 03:34N 41°09' E 002°20'1 0.6
2017-Feb-16 02:30N 41°09' E 002°21'1 0.6
2017-Feb-16 01:33N 41°10' E 002°21'1 0.6
2017-Feb-16 00:33N 41°10' E 002°21'1 0.7
2017-Feb-15 23:30N 41°11' E 002°22'1 0.7
2017-Feb-15 22:33N 41°11' E 002°22'1 0.7
2017-Feb-15 21:33N 41°12' E 002°23'1 0.7
2017-Feb-15 20:33N 41°13' E 002°23'1 0.7
2017-Feb-15 19:33N 41°13' E 002°24'1 0.7
2017-Feb-15 18:34N 41°13' E 002°25'1 0.7
2017-Feb-15 17:29N 41°14' E 002°26'1 0.8
2017-Feb-15 16:33N 41°14' E 002°27'13 9.7
2017-Feb-15 15:10N 41°06' E 002°12'711.6
2017-Feb-15 14:34N 40°60' E 002°08'1414.2
2017-Feb-15 13:33N 40°46' E 002°06'1414.4
2017-Feb-15 12:33N 40°31' E 002°05'1310.6
2017-Feb-15 11:18N 40°19' E 001°57'3 3.4
2017-Feb-15 10:33N 40°17' E 001°57'3 3.2
2017-Feb-15 09:33N 40°13' E 001°58'6 6.0
2017-Feb-15 08:33N 40°07' E 001°56'3 3.0
2017-Feb-15 07:33N 40°05' E 001°56'9 8.6
2017-Feb-15 06:33N 39°56' E 001°55'1211.6
2017-Feb-15 05:33N 39°45' E 001°53'1111.5
2017-Feb-15 04:33N 39°33' E 001°51'1110.9
2017-Feb-15 03:33N 39°22' E 001°53'1111.5
2017-Feb-15 02:33N 39°12' E 001°59'1212.2
2017-Feb-15 01:33N 39°00' E 002°04'1212.0
2017-Feb-15 00:33N 38°49' E 002°10'1211.8
2017-Feb-14 23:33N 38°38' E 002°15'5012.3
2017-Feb-14 19:28N 37°51' E 002°38'1415.4
2017-Feb-14 18:33N 37°38' E 002°44'1716.3
2017-Feb-14 17:32N 37°22' E 002°51'  
Track history (hours):
 
Tides and Currents Weather Stations Pressure Air Temp Water Temp Dewpoint Dewpoint Depression Visibility Wind Speed Wind Dir Waves Ship Positions

Jsp Bora

Last reported at 2017-Feb-23 14:04 UTC. Time now 2017-Feb-24 00:02 UTC.
Position N 38°04' E 001°31'.

Length 148 m; draft 8.9 m.

Type: Ship. MMSI: 305079000.

Date/timePositionNaut miles runAvg speedWind from/ knotsBaromVisibWave heightAir tempDewpointWater temp
2017-Feb-23 14:04N 38°04' E 001°31'1114.0
2017-Feb-23 13:17N 38°12' E 001°21'1214.4
2017-Feb-23 12:28N 38°20' E 001°10'1313.9
2017-Feb-23 11:31N 38°29' E 000°58'7714.7
2017-Feb-23 06:15N 39°23' W 000°13'6 8.8
2017-Feb-23 05:33N 39°26' W 000°20'0 0.1
2017-Feb-23 04:18N 39°26' W 000°20'0 0.0
2017-Feb-23 01:30N 39°26' W 000°20'0 0.0
2017-Feb-23 00:30N 39°26' W 000°20'0 0.0
2017-Feb-22 22:09N 39°26' W 000°20'0 0.0
2017-Feb-22 21:33N 39°26' W 000°20'0 0.0
2017-Feb-22 17:20N 39°26' W 000°20'0 0.0
2017-Feb-22 16:33N 39°26' W 000°20'0 0.0
2017-Feb-22 15:32N 39°26' W 000°20'0 0.0
2017-Feb-22 14:33N 39°26' W 000°20'0 0.0
2017-Feb-22 13:26N 39°26' W 000°20'0 0.0
2017-Feb-22 12:31N 39°26' W 000°20'0 0.0
2017-Feb-22 11:33N 39°26' W 000°20'0 0.0
2017-Feb-22 10:34N 39°26' W 000°20'0 0.0
2017-Feb-22 09:30N 39°26' W 000°20'0 0.0
2017-Feb-22 08:29N 39°26' W 000°20'0 0.0
2017-Feb-22 07:34N 39°26' W 000°20'0 0.0
2017-Feb-22 06:30N 39°26' W 000°20'2 2.4
2017-Feb-22 05:34N 39°25' W 000°17'  
2017-Feb-18 16:26N 38°40' E 002°14'1314.4
2017-Feb-18 15:32N 38°52' E 002°09'1515.0
2017-Feb-18 14:33N 39°06' E 002°02'1514.7
2017-Feb-18 13:33N 39°20' E 001°55'1414.5
2017-Feb-18 12:33N 39°34' E 001°51'1514.6
2017-Feb-18 11:33N 39°48' E 001°54'1514.5
2017-Feb-18 10:33N 40°03' E 001°56'1514.5
2017-Feb-18 09:33N 40°17' E 001°59'1514.8
2017-Feb-18 08:33N 40°32' E 002°02'1514.9
2017-Feb-18 07:33N 40°46' E 002°05'1514.7
2017-Feb-18 06:33N 41°01' E 002°07'1514.7
2017-Feb-18 05:33N 41°16' E 002°10'3 3.2
2017-Feb-18 04:33N 41°19' E 002°09'0 0.0
2017-Feb-18 03:33N 41°19' E 002°09'0 0.0
2017-Feb-18 02:33N 41°19' E 002°09'0 0.0
2017-Feb-18 01:33N 41°19' E 002°09'0 0.0
2017-Feb-18 00:33N 41°19' E 002°09'0 0.0
2017-Feb-17 23:30N 41°19' E 002°09'0 0.0
2017-Feb-17 22:14N 41°19' E 002°09'0 0.0
2017-Feb-17 21:31N 41°19' E 002°09'0 0.0
2017-Feb-17 20:30N 41°19' E 002°09'0 0.0
2017-Feb-17 19:25N 41°19' E 002°09'0 0.0
2017-Feb-17 17:08N 41°19' E 002°09'0 0.0
2017-Feb-17 14:14N 41°19' E 002°09'0 0.0
2017-Feb-17 13:29N 41°19' E 002°09'0 0.0
2017-Feb-17 11:26N 41°19' E 002°09'0 0.0
2017-Feb-17 10:28N 41°19' E 002°09'0 0.0
2017-Feb-17 09:33N 41°19' E 002°09'0 0.0
2017-Feb-17 08:33N 41°19' E 002°09'0 0.0
2017-Feb-17 07:32N 41°19' E 002°09'0 0.0
2017-Feb-17 05:25N 41°19' E 002°09'0 0.0
2017-Feb-17 04:30N 41°19' E 002°09'3 3.4
2017-Feb-17 03:30N 41°15' E 002°11'6 6.2
2017-Feb-17 02:33N 41°10' E 002°09'1 0.5
2017-Feb-17 01:33N 41°10' E 002°10'1 0.5
2017-Feb-17 00:33N 41°11' E 002°10'0 0.3
2017-Feb-16 23:33N 41°11' E 002°10'0 0.2
2017-Feb-16 22:33N 41°11' E 002°11'0 0.1
2017-Feb-16 21:32N 41°11' E 002°11'0 0.1
2017-Feb-16 20:33N 41°11' E 002°11'0 0.3
2017-Feb-16 19:33N 41°11' E 002°11'0 0.3
2017-Feb-16 18:33N 41°10' E 002°11'1 0.5
2017-Feb-16 17:33N 41°10' E 002°11'1 0.6
2017-Feb-16 16:33N 41°09' E 002°12'1 0.6
2017-Feb-16 15:33N 41°09' E 002°12'1 0.7
2017-Feb-16 14:33N 41°08' E 002°13'1 0.7
2017-Feb-16 13:32N 41°08' E 002°13'1 0.6
2017-Feb-16 12:33N 41°08' E 002°14'1 0.6
2017-Feb-16 11:32N 41°08' E 002°15'1 0.6
2017-Feb-16 10:34N 41°08' E 002°16'0 0.5
2017-Feb-16 09:33N 41°08' E 002°17'0 0.5
2017-Feb-16 08:33N 41°08' E 002°17'1 0.5
2017-Feb-16 07:33N 41°08' E 002°18'0 0.5
2017-Feb-16 06:33N 41°08' E 002°18'0 0.4
2017-Feb-16 05:33N 41°09' E 002°19'0 0.4
2017-Feb-16 04:33N 41°09' E 002°19'0 0.5
2017-Feb-16 03:34N 41°09' E 002°20'1 0.6
2017-Feb-16 02:30N 41°09' E 002°21'1 0.6
2017-Feb-16 01:33N 41°10' E 002°21'1 0.6
2017-Feb-16 00:33N 41°10' E 002°21'1 0.7
2017-Feb-15 23:30N 41°11' E 002°22'1 0.7
2017-Feb-15 22:33N 41°11' E 002°22'1 0.7
2017-Feb-15 21:33N 41°12' E 002°23'1 0.7
2017-Feb-15 20:33N 41°13' E 002°23'1 0.7
2017-Feb-15 19:33N 41°13' E 002°24'1 0.7
2017-Feb-15 18:34N 41°13' E 002°25'1 0.7
2017-Feb-15 17:29N 41°14' E 002°26'1 0.8
2017-Feb-15 16:33N 41°14' E 002°27'13 9.7
2017-Feb-15 15:10N 41°06' E 002°12'711.6
2017-Feb-15 14:34N 40°60' E 002°08'1414.2
2017-Feb-15 13:33N 40°46' E 002°06'1414.4
2017-Feb-15 12:33N 40°31' E 002°05'1310.6
2017-Feb-15 11:18N 40°19' E 001°57'3 3.4
2017-Feb-15 10:33N 40°17' E 001°57'3 3.2
2017-Feb-15 09:33N 40°13' E 001°58'6 6.0
2017-Feb-15 08:33N 40°07' E 001°56'3 3.0
2017-Feb-15 07:33N 40°05' E 001°56'9 8.6
2017-Feb-15 06:33N 39°56' E 001°55'1211.6
2017-Feb-15 05:33N 39°45' E 001°53'1111.5
2017-Feb-15 04:33N 39°33' E 001°51'1110.9
2017-Feb-15 03:33N 39°22' E 001°53'1111.5
2017-Feb-15 02:33N 39°12' E 001°59'1212.2
2017-Feb-15 01:33N 39°00' E 002°04'1212.0
2017-Feb-15 00:33N 38°49' E 002°10'1211.8
2017-Feb-14 23:33N 38°38' E 002°15'5012.3
2017-Feb-14 19:28N 37°51' E 002°38'1415.4
2017-Feb-14 18:33N 37°38' E 002°44'1716.3
2017-Feb-14 17:32N 37°22' E 002°51'  

Dump ship's entire track history